sensor_id;sensor_type;location;lat;lon;timestamp;P1;durP1;ratioP1;P2;durP2;ratioP2
58091;SDS011;43896;48.178;11.578;2023-02-19T00:01:34;3.45;;;1.40;;
58091;SDS011;43896;48.178;11.578;2023-02-19T00:04:02;2.67;;;1.10;;
58091;SDS011;43896;48.178;11.578;2023-02-19T00:06:31;4.03;;;1.30;;
58091;SDS011;43896;48.178;11.578;2023-02-19T00:08:57;6.47;;;1.38;;
58091;SDS011;43896;48.178;11.578;2023-02-19T00:11:24;4.40;;;1.40;;
58091;SDS011;43896;48.178;11.578;2023-02-19T00:13:53;3.20;;;1.33;;
58091;SDS011;43896;48.178;11.578;2023-02-19T00:18:46;3.42;;;1.20;;
58091;SDS011;43896;48.178;11.578;2023-02-19T00:21:12;3.88;;;1.40;;
58091;SDS011;43896;48.178;11.578;2023-02-19T00:23:38;2.40;;;1.15;;
58091;SDS011;43896;48.178;11.578;2023-02-19T00:26:07;2.60;;;1.20;;
58091;SDS011;43896;48.178;11.578;2023-02-19T00:28:34;4.85;;;1.40;;
58091;SDS011;43896;48.178;11.578;2023-02-19T00:31:04;3.60;;;1.40;;
58091;SDS011;43896;48.178;11.578;2023-02-19T00:33:34;3.05;;;1.30;;
58091;SDS011;43896;48.178;11.578;2023-02-19T00:36:00;3.97;;;1.30;;
58091;SDS011;43896;48.178;11.578;2023-02-19T00:38:26;2.60;;;1.10;;
58091;SDS011;43896;48.178;11.578;2023-02-19T00:40:52;2.70;;;1.25;;
58091;SDS011;43896;48.178;11.578;2023-02-19T00:43:17;3.53;;;1.40;;
58091;SDS011;43896;48.178;11.578;2023-02-19T00:45:42;2.45;;;1.10;;
58091;SDS011;43896;48.178;11.578;2023-02-19T00:48:08;2.42;;;1.20;;
58091;SDS011;43896;48.178;11.578;2023-02-19T00:50:33;3.50;;;1.27;;
58091;SDS011;43896;48.178;11.578;2023-02-19T00:52:58;3.15;;;1.27;;
58091;SDS011;43896;48.178;11.578;2023-02-19T00:55:23;2.83;;;1.27;;
58091;SDS011;43896;48.178;11.578;2023-02-19T00:57:49;3.08;;;1.27;;
58091;SDS011;43896;48.178;11.578;2023-02-19T01:00:14;2.42;;;1.30;;
58091;SDS011;43896;48.178;11.578;2023-02-19T01:02:39;2.45;;;1.27;;
58091;SDS011;43896;48.178;11.578;2023-02-19T01:05:05;3.08;;;1.15;;
58091;SDS011;43896;48.178;11.578;2023-02-19T01:07:30;2.80;;;1.20;;
58091;SDS011;43896;48.178;11.578;2023-02-19T01:09:55;2.17;;;1.00;;
58091;SDS011;43896;48.178;11.578;2023-02-19T01:12:21;2.55;;;1.05;;
58091;SDS011;43896;48.178;11.578;2023-02-19T01:14:48;2.30;;;1.00;;
58091;SDS011;43896;48.178;11.578;2023-02-19T01:17:13;2.70;;;1.30;;
58091;SDS011;43896;48.178;11.578;2023-02-19T01:19:38;2.53;;;1.20;;
58091;SDS011;43896;48.178;11.578;2023-02-19T01:22:04;2.78;;;1.20;;
58091;SDS011;43896;48.178;11.578;2023-02-19T01:24:29;2.75;;;1.02;;
58091;SDS011;43896;48.178;11.578;2023-02-19T01:26:54;3.13;;;1.20;;
58091;SDS011;43896;48.178;11.578;2023-02-19T01:29:20;3.38;;;1.33;;
58091;SDS011;43896;48.178;11.578;2023-02-19T01:31:45;4.85;;;1.30;;
58091;SDS011;43896;48.178;11.578;2023-02-19T01:34:10;2.75;;;1.15;;
58091;SDS011;43896;48.178;11.578;2023-02-19T01:36:36;2.67;;;1.10;;
58091;SDS011;43896;48.178;11.578;2023-02-19T01:39:03;3.25;;;1.30;;
58091;SDS011;43896;48.178;11.578;2023-02-19T01:41:30;2.30;;;1.10;;
58091;SDS011;43896;48.178;11.578;2023-02-19T01:46:33;3.05;;;1.27;;
58091;SDS011;43896;48.178;11.578;2023-02-19T01:51:32;2.92;;;1.30;;
58091;SDS011;43896;48.178;11.578;2023-02-19T01:54:00;3.55;;;1.30;;
58091;SDS011;43896;48.178;11.578;2023-02-19T01:56:28;3.42;;;1.50;;
58091;SDS011;43896;48.178;11.578;2023-02-19T01:58:57;2.92;;;1.40;;
58091;SDS011;43896;48.178;11.578;2023-02-19T02:01:23;3.97;;;1.13;;
58091;SDS011;43896;48.178;11.578;2023-02-19T02:03:48;4.53;;;1.40;;
58091;SDS011;43896;48.178;11.578;2023-02-19T02:06:16;3.47;;;1.38;;
58091;SDS011;43896;48.178;11.578;2023-02-19T02:08:58;2.60;;;1.30;;
58091;SDS011;43896;48.178;11.578;2023-02-19T02:11:44;4.13;;;1.33;;
58091;SDS011;43896;48.178;11.578;2023-02-19T02:14:12;2.67;;;1.35;;
58091;SDS011;43896;48.178;11.578;2023-02-19T02:21:57;3.20;;;1.30;;
58091;SDS011;43896;48.178;11.578;2023-02-19T02:24:40;3.22;;;1.48;;
58091;SDS011;43896;48.178;11.578;2023-02-19T02:30:22;3.20;;;1.30;;
58091;SDS011;43896;48.178;11.578;2023-02-19T02:35:46;3.33;;;1.40;;
58091;SDS011;43896;48.178;11.578;2023-02-19T02:38:15;3.22;;;1.42;;
58091;SDS011;43896;48.178;11.578;2023-02-19T02:40:44;4.20;;;1.60;;
58091;SDS011;43896;48.178;11.578;2023-02-19T02:43:11;3.50;;;1.63;;
58091;SDS011;43896;48.178;11.578;2023-02-19T02:45:37;3.35;;;1.60;;
58091;SDS011;43896;48.178;11.578;2023-02-19T02:48:15;4.60;;;1.60;;
58091;SDS011;43896;48.178;11.578;2023-02-19T02:50:54;3.53;;;1.65;;
58091;SDS011;43896;48.178;11.578;2023-02-19T02:53:42;3.00;;;1.45;;
58091;SDS011;43896;48.178;11.578;2023-02-19T02:56:30;3.60;;;1.58;;
58091;SDS011;43896;48.178;11.578;2023-02-19T02:58:57;4.13;;;1.63;;
58091;SDS011;43896;48.178;11.578;2023-02-19T03:01:27;2.97;;;1.55;;
58091;SDS011;43896;48.178;11.578;2023-02-19T03:04:17;3.70;;;1.60;;
58091;SDS011;43896;48.178;11.578;2023-02-19T03:06:47;4.72;;;1.80;;
58091;SDS011;43896;48.178;11.578;2023-02-19T03:09:16;4.20;;;2.00;;
58091;SDS011;43896;48.178;11.578;2023-02-19T03:11:48;3.50;;;1.60;;
58091;SDS011;43896;48.178;11.578;2023-02-19T03:14:45;3.83;;;1.70;;
58091;SDS011;43896;48.178;11.578;2023-02-19T03:17:35;3.45;;;1.75;;
58091;SDS011;43896;48.178;11.578;2023-02-19T03:20:24;3.60;;;1.50;;
58091;SDS011;43896;48.178;11.578;2023-02-19T03:22:51;3.65;;;1.52;;
58091;SDS011;43896;48.178;11.578;2023-02-19T03:25:19;3.05;;;1.58;;
58091;SDS011;43896;48.178;11.578;2023-02-19T03:28:06;4.20;;;1.77;;
58091;SDS011;43896;48.178;11.578;2023-02-19T03:30:36;3.53;;;1.60;;
58091;SDS011;43896;48.178;11.578;2023-02-19T03:33:10;3.17;;;1.50;;
58091;SDS011;43896;48.178;11.578;2023-02-19T03:35:43;3.95;;;1.70;;
58091;SDS011;43896;48.178;11.578;2023-02-19T03:38:15;3.55;;;1.70;;
58091;SDS011;43896;48.178;11.578;2023-02-19T03:40:59;4.13;;;1.80;;
58091;SDS011;43896;48.178;11.578;2023-02-19T03:43:37;4.95;;;1.90;;
58091;SDS011;43896;48.178;11.578;2023-02-19T03:48:47;4.65;;;1.60;;
58091;SDS011;43896;48.178;11.578;2023-02-19T03:54:51;2.72;;;1.40;;
58091;SDS011;43896;48.178;11.578;2023-02-19T03:59:57;3.70;;;1.60;;
58091;SDS011;43896;48.178;11.578;2023-02-19T04:02:30;3.95;;;1.75;;
58091;SDS011;43896;48.178;11.578;2023-02-19T04:05:02;3.42;;;1.70;;
58091;SDS011;43896;48.178;11.578;2023-02-19T04:07:33;3.92;;;1.70;;
58091;SDS011;43896;48.178;11.578;2023-02-19T04:10:01;3.92;;;1.80;;
58091;SDS011;43896;48.178;11.578;2023-02-19T04:12:29;5.45;;;1.80;;
58091;SDS011;43896;48.178;11.578;2023-02-19T04:15:01;3.25;;;1.60;;
58091;SDS011;43896;48.178;11.578;2023-02-19T04:17:30;3.72;;;1.52;;
58091;SDS011;43896;48.178;11.578;2023-02-19T04:19:59;4.15;;;1.80;;
58091;SDS011;43896;48.178;11.578;2023-02-19T04:22:29;3.38;;;1.60;;
58091;SDS011;43896;48.178;11.578;2023-02-19T04:24:55;3.72;;;1.60;;
58091;SDS011;43896;48.178;11.578;2023-02-19T04:27:20;3.20;;;1.58;;
58091;SDS011;43896;48.178;11.578;2023-02-19T04:29:46;2.97;;;1.30;;
58091;SDS011;43896;48.178;11.578;2023-02-19T04:32:12;3.75;;;1.65;;
58091;SDS011;43896;48.178;11.578;2023-02-19T04:34:38;3.45;;;1.60;;
58091;SDS011;43896;48.178;11.578;2023-02-19T04:37:03;3.00;;;1.30;;
58091;SDS011;43896;48.178;11.578;2023-02-19T04:39:29;3.75;;;1.48;;
58091;SDS011;43896;48.178;11.578;2023-02-19T04:41:54;3.53;;;1.40;;
58091;SDS011;43896;48.178;11.578;2023-02-19T04:44:19;3.63;;;1.58;;
58091;SDS011;43896;48.178;11.578;2023-02-19T04:46:45;3.75;;;1.65;;
58091;SDS011;43896;48.178;11.578;2023-02-19T04:49:10;3.00;;;1.33;;
58091;SDS011;43896;48.178;11.578;2023-02-19T04:51:36;2.70;;;1.40;;
58091;SDS011;43896;48.178;11.578;2023-02-19T04:54:02;4.70;;;1.58;;
58091;SDS011;43896;48.178;11.578;2023-02-19T04:56:27;3.05;;;1.42;;
58091;SDS011;43896;48.178;11.578;2023-02-19T04:58:52;4.85;;;1.48;;
58091;SDS011;43896;48.178;11.578;2023-02-19T05:01:18;3.03;;;1.38;;
58091;SDS011;43896;48.178;11.578;2023-02-19T05:03:43;3.45;;;1.40;;
58091;SDS011;43896;48.178;11.578;2023-02-19T05:06:10;4.00;;;1.30;;
58091;SDS011;43896;48.178;11.578;2023-02-19T05:08:37;3.93;;;1.53;;
58091;SDS011;43896;48.178;11.578;2023-02-19T05:11:04;3.10;;;1.50;;
58091;SDS011;43896;48.178;11.578;2023-02-19T05:13:31;3.08;;;1.50;;
58091;SDS011;43896;48.178;11.578;2023-02-19T05:15:57;2.75;;;1.30;;
58091;SDS011;43896;48.178;11.578;2023-02-19T05:18:27;2.80;;;1.27;;
58091;SDS011;43896;48.178;11.578;2023-02-19T05:20:52;3.58;;;1.38;;
58091;SDS011;43896;48.178;11.578;2023-02-19T05:23:18;2.58;;;1.20;;
58091;SDS011;43896;48.178;11.578;2023-02-19T05:25:44;3.05;;;1.42;;
58091;SDS011;43896;48.178;11.578;2023-02-19T05:28:10;2.55;;;1.27;;
58091;SDS011;43896;48.178;11.578;2023-02-19T05:30:42;3.97;;;1.33;;
58091;SDS011;43896;48.178;11.578;2023-02-19T05:33:08;2.78;;;1.17;;
58091;SDS011;43896;48.178;11.578;2023-02-19T05:35:39;3.08;;;1.20;;
58091;SDS011;43896;48.178;11.578;2023-02-19T05:38:07;3.25;;;1.30;;
58091;SDS011;43896;48.178;11.578;2023-02-19T05:40:32;2.65;;;1.42;;
58091;SDS011;43896;48.178;11.578;2023-02-19T05:42:58;3.00;;;1.33;;
58091;SDS011;43896;48.178;11.578;2023-02-19T05:45:23;3.47;;;1.30;;
58091;SDS011;43896;48.178;11.578;2023-02-19T05:47:49;2.63;;;1.20;;
58091;SDS011;43896;48.178;11.578;2023-02-19T05:50:14;3.13;;;1.30;;
58091;SDS011;43896;48.178;11.578;2023-02-19T05:52:40;2.83;;;1.30;;
58091;SDS011;43896;48.178;11.578;2023-02-19T05:55:05;2.88;;;1.20;;
58091;SDS011;43896;48.178;11.578;2023-02-19T05:57:30;2.78;;;1.20;;
58091;SDS011;43896;48.178;11.578;2023-02-19T05:59:56;2.85;;;1.27;;
58091;SDS011;43896;48.178;11.578;2023-02-19T06:02:21;3.28;;;1.30;;
58091;SDS011;43896;48.178;11.578;2023-02-19T06:04:46;3.10;;;1.30;;
58091;SDS011;43896;48.178;11.578;2023-02-19T06:07:11;3.00;;;1.35;;
58091;SDS011;43896;48.178;11.578;2023-02-19T06:09:37;3.38;;;1.50;;
58091;SDS011;43896;48.178;11.578;2023-02-19T06:12:02;2.88;;;1.30;;
58091;SDS011;43896;48.178;11.578;2023-02-19T06:14:27;2.70;;;1.30;;
58091;SDS011;43896;48.178;11.578;2023-02-19T06:16:53;2.63;;;1.23;;
58091;SDS011;43896;48.178;11.578;2023-02-19T06:19:18;2.67;;;1.30;;
58091;SDS011;43896;48.178;11.578;2023-02-19T06:21:43;2.55;;;1.33;;
58091;SDS011;43896;48.178;11.578;2023-02-19T06:24:09;3.17;;;1.30;;
58091;SDS011;43896;48.178;11.578;2023-02-19T06:26:34;2.53;;;1.17;;
58091;SDS011;43896;48.178;11.578;2023-02-19T06:29:00;2.88;;;1.30;;
58091;SDS011;43896;48.178;11.578;2023-02-19T06:31:25;2.90;;;1.27;;
58091;SDS011;43896;48.178;11.578;2023-02-19T06:33:51;2.17;;;1.30;;
58091;SDS011;43896;48.178;11.578;2023-02-19T06:36:17;3.45;;;1.50;;
58091;SDS011;43896;48.178;11.578;2023-02-19T06:38:44;3.40;;;1.40;;
58091;SDS011;43896;48.178;11.578;2023-02-19T06:41:09;3.15;;;1.50;;
58091;SDS011;43896;48.178;11.578;2023-02-19T06:43:36;2.72;;;1.35;;
58091;SDS011;43896;48.178;11.578;2023-02-19T06:46:02;2.63;;;1.30;;
58091;SDS011;43896;48.178;11.578;2023-02-19T06:48:28;2.80;;;1.30;;
58091;SDS011;43896;48.178;11.578;2023-02-19T06:50:55;3.08;;;1.20;;
58091;SDS011;43896;48.178;11.578;2023-02-19T06:53:20;3.00;;;1.45;;
58091;SDS011;43896;48.178;11.578;2023-02-19T06:56:46;3.20;;;1.48;;
58091;SDS011;43896;48.178;11.578;2023-02-19T06:58:53;3.13;;;1.40;;
58091;SDS011;43896;48.178;11.578;2023-02-19T07:01:19;3.38;;;1.40;;
58091;SDS011;43896;48.178;11.578;2023-02-19T07:03:45;3.65;;;1.50;;
58091;SDS011;43896;48.178;11.578;2023-02-19T07:06:11;2.92;;;1.60;;
58091;SDS011;43896;48.178;11.578;2023-02-19T07:08:36;2.80;;;1.40;;
58091;SDS011;43896;48.178;11.578;2023-02-19T07:11:01;2.55;;;1.38;;
58091;SDS011;43896;48.178;11.578;2023-02-19T07:13:27;3.22;;;1.40;;
58091;SDS011;43896;48.178;11.578;2023-02-19T07:15:59;2.83;;;1.40;;
58091;SDS011;43896;48.178;11.578;2023-02-19T07:18:26;3.28;;;1.50;;
58091;SDS011;43896;48.178;11.578;2023-02-19T07:20:51;2.78;;;1.40;;
58091;SDS011;43896;48.178;11.578;2023-02-19T07:23:17;3.33;;;1.60;;
58091;SDS011;43896;48.178;11.578;2023-02-19T07:25:42;2.97;;;1.50;;
58091;SDS011;43896;48.178;11.578;2023-02-19T07:28:07;3.63;;;1.40;;
58091;SDS011;43896;48.178;11.578;2023-02-19T07:30:33;3.05;;;1.50;;
58091;SDS011;43896;48.178;11.578;2023-02-19T07:32:58;3.15;;;1.80;;
58091;SDS011;43896;48.178;11.578;2023-02-19T07:35:23;2.85;;;1.50;;
58091;SDS011;43896;48.178;11.578;2023-02-19T07:37:48;3.28;;;1.48;;
58091;SDS011;43896;48.178;11.578;2023-02-19T07:40:14;3.55;;;1.75;;
58091;SDS011;43896;48.178;11.578;2023-02-19T07:42:39;3.58;;;1.70;;
58091;SDS011;43896;48.178;11.578;2023-02-19T07:45:04;3.72;;;1.60;;
58091;SDS011;43896;48.178;11.578;2023-02-19T07:47:30;3.42;;;1.55;;
58091;SDS011;43896;48.178;11.578;2023-02-19T07:49:55;3.88;;;1.67;;
58091;SDS011;43896;48.178;11.578;2023-02-19T07:52:21;4.53;;;1.85;;
58091;SDS011;43896;48.178;11.578;2023-02-19T07:54:46;3.50;;;1.80;;
58091;SDS011;43896;48.178;11.578;2023-02-19T07:57:11;3.33;;;1.55;;
58091;SDS011;43896;48.178;11.578;2023-02-19T07:59:37;3.25;;;1.70;;
58091;SDS011;43896;48.178;11.578;2023-02-19T08:02:11;3.38;;;1.90;;
58091;SDS011;43896;48.178;11.578;2023-02-19T08:04:59;2.67;;;1.52;;
58091;SDS011;43896;48.178;11.578;2023-02-19T08:07:24;3.03;;;1.63;;
58091;SDS011;43896;48.178;11.578;2023-02-19T08:09:55;3.20;;;1.60;;
58091;SDS011;43896;48.178;11.578;2023-02-19T08:12:40;3.08;;;1.60;;
58091;SDS011;43896;48.178;11.578;2023-02-19T08:15:24;3.05;;;1.40;;
58091;SDS011;43896;48.178;11.578;2023-02-19T08:17:49;3.08;;;1.42;;
58091;SDS011;43896;48.178;11.578;2023-02-19T08:20:15;3.15;;;1.50;;
58091;SDS011;43896;48.178;11.578;2023-02-19T08:22:40;2.88;;;1.40;;
58091;SDS011;43896;48.178;11.578;2023-02-19T08:25:06;3.50;;;1.70;;
58091;SDS011;43896;48.178;11.578;2023-02-19T08:27:31;3.40;;;1.70;;
58091;SDS011;43896;48.178;11.578;2023-02-19T08:29:56;3.50;;;1.55;;
58091;SDS011;43896;48.178;11.578;2023-02-19T08:32:22;2.90;;;1.48;;
58091;SDS011;43896;48.178;11.578;2023-02-19T08:34:47;2.80;;;1.40;;
58091;SDS011;43896;48.178;11.578;2023-02-19T08:37:12;2.60;;;1.40;;
58091;SDS011;43896;48.178;11.578;2023-02-19T08:39:38;2.70;;;1.40;;
58091;SDS011;43896;48.178;11.578;2023-02-19T08:42:03;3.08;;;1.40;;
58091;SDS011;43896;48.178;11.578;2023-02-19T08:44:28;3.00;;;1.40;;
58091;SDS011;43896;48.178;11.578;2023-02-19T08:46:54;2.80;;;1.30;;
58091;SDS011;43896;48.178;11.578;2023-02-19T08:49:19;2.60;;;1.17;;
58091;SDS011;43896;48.178;11.578;2023-02-19T08:51:44;1.80;;;0.90;;
58091;SDS011;43896;48.178;11.578;2023-02-19T08:54:09;2.78;;;1.00;;
58091;SDS011;43896;48.178;11.578;2023-02-19T08:56:35;2.17;;;0.88;;
58091;SDS011;43896;48.178;11.578;2023-02-19T08:59:00;1.63;;;0.90;;
58091;SDS011;43896;48.178;11.578;2023-02-19T09:01:25;1.83;;;1.00;;
58091;SDS011;43896;48.178;11.578;2023-02-19T09:03:51;2.92;;;0.90;;
58091;SDS011;43896;48.178;11.578;2023-02-19T09:06:18;1.88;;;0.82;;
58091;SDS011;43896;48.178;11.578;2023-02-19T09:08:45;1.58;;;0.70;;
58091;SDS011;43896;48.178;11.578;2023-02-19T09:11:10;1.50;;;0.75;;
58091;SDS011;43896;48.178;11.578;2023-02-19T09:13:36;1.10;;;0.55;;
58091;SDS011;43896;48.178;11.578;2023-02-19T09:16:02;1.48;;;0.73;;
58091;SDS011;43896;48.178;11.578;2023-02-19T09:18:28;1.70;;;0.80;;
58091;SDS011;43896;48.178;11.578;2023-02-19T09:20:53;1.88;;;0.80;;
58091;SDS011;43896;48.178;11.578;2023-02-19T09:23:19;1.67;;;0.70;;
58091;SDS011;43896;48.178;11.578;2023-02-19T09:25:44;2.40;;;0.90;;
58091;SDS011;43896;48.178;11.578;2023-02-19T09:28:10;2.50;;;0.70;;
58091;SDS011;43896;48.178;11.578;2023-02-19T09:30:35;2.58;;;0.60;;
58091;SDS011;43896;48.178;11.578;2023-02-19T09:33:00;0.85;;;0.38;;
58091;SDS011;43896;48.178;11.578;2023-02-19T09:35:28;1.08;;;0.40;;
58091;SDS011;43896;48.178;11.578;2023-02-19T09:37:53;1.08;;;0.30;;
58091;SDS011;43896;48.178;11.578;2023-02-19T09:40:18;1.33;;;0.40;;
58091;SDS011;43896;48.178;11.578;2023-02-19T09:42:45;0.77;;;0.30;;
58091;SDS011;43896;48.178;11.578;2023-02-19T09:45:14;0.47;;;0.30;;
58091;SDS011;43896;48.178;11.578;2023-02-19T09:47:45;0.68;;;0.30;;
58091;SDS011;43896;48.178;11.578;2023-02-19T09:50:11;0.68;;;0.20;;
58091;SDS011;43896;48.178;11.578;2023-02-19T09:52:44;1.33;;;0.30;;
58091;SDS011;43896;48.178;11.578;2023-02-19T09:55:35;0.50;;;0.20;;
58091;SDS011;43896;48.178;11.578;2023-02-19T10:00:59;1.50;;;0.30;;
58091;SDS011;43896;48.178;11.578;2023-02-19T10:03:34;0.70;;;0.30;;
58091;SDS011;43896;48.178;11.578;2023-02-19T10:08:50;1.13;;;0.40;;
58091;SDS011;43896;48.178;11.578;2023-02-19T10:11:17;0.60;;;0.30;;
58091;SDS011;43896;48.178;11.578;2023-02-19T10:13:47;0.70;;;0.40;;
58091;SDS011;43896;48.178;11.578;2023-02-19T10:16:19;0.80;;;0.50;;
58091;SDS011;43896;48.178;11.578;2023-02-19T10:18:49;0.73;;;0.38;;
58091;SDS011;43896;48.178;11.578;2023-02-19T10:21:16;1.02;;;0.43;;
58091;SDS011;43896;48.178;11.578;2023-02-19T10:23:44;1.00;;;0.45;;
58091;SDS011;43896;48.178;11.578;2023-02-19T10:26:12;0.52;;;0.30;;
58091;SDS011;43896;48.178;11.578;2023-02-19T10:28:38;1.48;;;0.50;;
58091;SDS011;43896;48.178;11.578;2023-02-19T10:31:05;1.63;;;0.50;;
58091;SDS011;43896;48.178;11.578;2023-02-19T10:33:52;0.88;;;0.50;;
58091;SDS011;43896;48.178;11.578;2023-02-19T10:36:28;1.05;;;0.50;;
58091;SDS011;43896;48.178;11.578;2023-02-19T10:38:58;0.70;;;0.40;;
58091;SDS011;43896;48.178;11.578;2023-02-19T10:41:25;1.00;;;0.38;;
58091;SDS011;43896;48.178;11.578;2023-02-19T10:44:01;1.40;;;0.45;;
58091;SDS011;43896;48.178;11.578;2023-02-19T10:46:31;1.48;;;0.50;;
58091;SDS011;43896;48.178;11.578;2023-02-19T10:49:01;1.83;;;0.50;;
58091;SDS011;43896;48.178;11.578;2023-02-19T10:51:41;0.77;;;0.40;;
58091;SDS011;43896;48.178;11.578;2023-02-19T10:54:15;1.00;;;0.40;;
58091;SDS011;43896;48.178;11.578;2023-02-19T10:56:44;0.98;;;0.30;;
58091;SDS011;43896;48.178;11.578;2023-02-19T11:01:57;3.08;;;0.47;;
58091;SDS011;43896;48.178;11.578;2023-02-19T11:04:27;0.43;;;0.30;;
58091;SDS011;43896;48.178;11.578;2023-02-19T11:06:57;3.17;;;0.40;;
58091;SDS011;43896;48.178;11.578;2023-02-19T11:12:00;0.80;;;0.30;;
58091;SDS011;43896;48.178;11.578;2023-02-19T11:14:28;1.02;;;0.30;;
58091;SDS011;43896;48.178;11.578;2023-02-19T11:16:56;1.10;;;0.38;;
58091;SDS011;43896;48.178;11.578;2023-02-19T11:25:04;1.25;;;0.30;;
58091;SDS011;43896;48.178;11.578;2023-02-19T11:27:32;1.23;;;0.45;;
58091;SDS011;43896;48.178;11.578;2023-02-19T11:32:55;0.63;;;0.20;;
58091;SDS011;43896;48.178;11.578;2023-02-19T11:35:21;0.88;;;0.35;;
58091;SDS011;43896;48.178;11.578;2023-02-19T11:37:58;0.50;;;0.20;;
58091;SDS011;43896;48.178;11.578;2023-02-19T11:40:36;0.50;;;0.20;;
58091;SDS011;43896;48.178;11.578;2023-02-19T11:45:43;0.50;;;0.30;;
58091;SDS011;43896;48.178;11.578;2023-02-19T11:54:05;1.75;;;0.30;;
58091;SDS011;43896;48.178;11.578;2023-02-19T11:56:42;0.85;;;0.30;;
58091;SDS011;43896;48.178;11.578;2023-02-19T12:01:54;1.77;;;0.40;;
58091;SDS011;43896;48.178;11.578;2023-02-19T12:27:37;0.90;;;0.30;;
58091;SDS011;43896;48.178;11.578;2023-02-19T12:43:52;1.13;;;0.45;;
58091;SDS011;43896;48.178;11.578;2023-02-19T12:46:24;0.73;;;0.40;;
58091;SDS011;43896;48.178;11.578;2023-02-19T12:48:57;1.27;;;0.32;;
58091;SDS011;43896;48.178;11.578;2023-02-19T12:59:35;0.73;;;0.30;;
58091;SDS011;43896;48.178;11.578;2023-02-19T13:02:11;1.77;;;0.43;;
58091;SDS011;43896;48.178;11.578;2023-02-19T13:04:42;1.20;;;0.40;;
58091;SDS011;43896;48.178;11.578;2023-02-19T13:07:26;1.73;;;0.50;;
58091;SDS011;43896;48.178;11.578;2023-02-19T13:10:46;2.67;;;0.40;;
58091;SDS011;43896;48.178;11.578;2023-02-19T13:13:16;1.80;;;0.40;;
58091;SDS011;43896;48.178;11.578;2023-02-19T13:15:48;0.80;;;0.35;;
58091;SDS011;43896;48.178;11.578;2023-02-19T13:18:23;1.10;;;0.40;;
58091;SDS011;43896;48.178;11.578;2023-02-19T13:20:53;3.53;;;0.50;;
58091;SDS011;43896;48.178;11.578;2023-02-19T13:26:25;2.05;;;0.63;;
58091;SDS011;43896;48.178;11.578;2023-02-19T13:34:58;1.98;;;0.40;;
58091;SDS011;43896;48.178;11.578;2023-02-19T13:37:34;1.40;;;0.40;;
58091;SDS011;43896;48.178;11.578;2023-02-19T13:40:16;2.28;;;0.43;;
58091;SDS011;43896;48.178;11.578;2023-02-19T13:42:46;1.02;;;0.40;;
58091;SDS011;43896;48.178;11.578;2023-02-19T13:45:20;3.70;;;0.50;;
58091;SDS011;43896;48.178;11.578;2023-02-19T13:51:43;1.20;;;0.47;;
58091;SDS011;43896;48.178;11.578;2023-02-19T14:04:41;0.95;;;0.30;;
58091;SDS011;43896;48.178;11.578;2023-02-19T14:14:37;1.92;;;0.50;;
58091;SDS011;43896;48.178;11.578;2023-02-19T14:25:18;1.58;;;0.30;;
58091;SDS011;43896;48.178;11.578;2023-02-19T14:27:48;2.22;;;0.47;;
58091;SDS011;43896;48.178;11.578;2023-02-19T14:30:15;2.53;;;0.50;;
58091;SDS011;43896;48.178;11.578;2023-02-19T14:32:42;2.63;;;0.50;;
58091;SDS011;43896;48.178;11.578;2023-02-19T14:35:16;1.98;;;0.40;;
58091;SDS011;43896;48.178;11.578;2023-02-19T14:37:43;1.55;;;0.47;;
58091;SDS011;43896;48.178;11.578;2023-02-19T14:40:11;1.58;;;0.60;;
58091;SDS011;43896;48.178;11.578;2023-02-19T14:42:45;1.25;;;0.50;;
58091;SDS011;43896;48.178;11.578;2023-02-19T14:45:12;3.00;;;0.80;;
58091;SDS011;43896;48.178;11.578;2023-02-19T14:47:39;2.25;;;0.70;;
58091;SDS011;43896;48.178;11.578;2023-02-19T14:50:07;2.05;;;0.60;;
58091;SDS011;43896;48.178;11.578;2023-02-19T14:52:55;3.22;;;1.00;;
58091;SDS011;43896;48.178;11.578;2023-02-19T14:55:34;3.08;;;0.68;;
58091;SDS011;43896;48.178;11.578;2023-02-19T14:58:25;1.98;;;0.60;;
58091;SDS011;43896;48.178;11.578;2023-02-19T15:00:57;2.22;;;0.50;;
58091;SDS011;43896;48.178;11.578;2023-02-19T15:03:25;1.73;;;0.60;;
58091;SDS011;43896;48.178;11.578;2023-02-19T15:05:56;5.90;;;1.80;;
58091;SDS011;43896;48.178;11.578;2023-02-19T15:08:30;3.58;;;0.93;;
58091;SDS011;43896;48.178;11.578;2023-02-19T15:10:59;2.55;;;0.60;;
58091;SDS011;43896;48.178;11.578;2023-02-19T15:13:26;3.70;;;0.98;;
58091;SDS011;43896;48.178;11.578;2023-02-19T15:15:53;5.55;;;1.00;;
58091;SDS011;43896;48.178;11.578;2023-02-19T15:18:20;2.03;;;0.85;;
58091;SDS011;43896;48.178;11.578;2023-02-19T15:20:48;2.50;;;0.77;;
58091;SDS011;43896;48.178;11.578;2023-02-19T15:23:20;2.65;;;0.73;;
58091;SDS011;43896;48.178;11.578;2023-02-19T15:25:47;1.92;;;0.60;;
58091;SDS011;43896;48.178;11.578;2023-02-19T15:28:20;1.77;;;0.40;;
58091;SDS011;43896;48.178;11.578;2023-02-19T15:33:22;3.97;;;0.70;;
58091;SDS011;43896;48.178;11.578;2023-02-19T15:35:51;3.70;;;0.70;;
58091;SDS011;43896;48.178;11.578;2023-02-19T15:38:19;2.33;;;0.80;;
58091;SDS011;43896;48.178;11.578;2023-02-19T15:40:45;2.33;;;0.77;;
58091;SDS011;43896;48.178;11.578;2023-02-19T15:43:18;2.13;;;0.60;;
58091;SDS011;43896;48.178;11.578;2023-02-19T15:45:49;2.25;;;0.65;;
58091;SDS011;43896;48.178;11.578;2023-02-19T15:48:16;2.72;;;0.70;;
58091;SDS011;43896;48.178;11.578;2023-02-19T15:50:52;2.30;;;0.80;;
58091;SDS011;43896;48.178;11.578;2023-02-19T15:53:24;2.78;;;0.70;;
58091;SDS011;43896;48.178;11.578;2023-02-19T15:55:59;1.38;;;0.65;;
58091;SDS011;43896;48.178;11.578;2023-02-19T15:58:43;2.25;;;0.70;;
58091;SDS011;43896;48.178;11.578;2023-02-19T16:01:26;3.30;;;0.90;;
58091;SDS011;43896;48.178;11.578;2023-02-19T16:03:53;2.47;;;0.77;;
58091;SDS011;43896;48.178;11.578;2023-02-19T16:06:19;2.70;;;0.80;;
58091;SDS011;43896;48.178;11.578;2023-02-19T16:09:04;2.83;;;0.80;;
58091;SDS011;43896;48.178;11.578;2023-02-19T16:16:58;2.05;;;0.70;;
58091;SDS011;43896;48.178;11.578;2023-02-19T16:19:41;2.22;;;0.80;;
58091;SDS011;43896;48.178;11.578;2023-02-19T16:22:08;3.15;;;0.90;;
58091;SDS011;43896;48.178;11.578;2023-02-19T16:24:48;2.97;;;0.70;;
58091;SDS011;43896;48.178;11.578;2023-02-19T16:27:33;3.65;;;0.93;;
58091;SDS011;43896;48.178;11.578;2023-02-19T16:30:01;2.40;;;0.80;;
58091;SDS011;43896;48.178;11.578;2023-02-19T16:32:31;3.20;;;1.00;;
58091;SDS011;43896;48.178;11.578;2023-02-19T16:34:56;3.80;;;0.98;;
58091;SDS011;43896;48.178;11.578;2023-02-19T16:42:33;2.30;;;0.75;;
58091;SDS011;43896;48.178;11.578;2023-02-19T16:45:00;2.75;;;0.80;;
58091;SDS011;43896;48.178;11.578;2023-02-19T16:47:32;4.22;;;0.90;;
58091;SDS011;43896;48.178;11.578;2023-02-19T16:50:01;2.20;;;0.88;;
58091;SDS011;43896;48.178;11.578;2023-02-19T16:52:28;3.67;;;0.90;;
58091;SDS011;43896;48.178;11.578;2023-02-19T16:54:53;3.38;;;1.10;;
58091;SDS011;43896;48.178;11.578;2023-02-19T16:57:19;2.90;;;0.88;;
58091;SDS011;43896;48.178;11.578;2023-02-19T16:59:44;2.53;;;0.95;;
58091;SDS011;43896;48.178;11.578;2023-02-19T17:02:13;3.50;;;1.33;;
58091;SDS011;43896;48.178;11.578;2023-02-19T17:04:41;1.98;;;0.82;;
58091;SDS011;43896;48.178;11.578;2023-02-19T17:07:08;3.28;;;0.95;;
58091;SDS011;43896;48.178;11.578;2023-02-19T17:09:37;3.95;;;0.95;;
58091;SDS011;43896;48.178;11.578;2023-02-19T17:12:04;2.13;;;0.80;;
58091;SDS011;43896;48.178;11.578;2023-02-19T17:14:33;2.75;;;1.05;;
58091;SDS011;43896;48.178;11.578;2023-02-19T17:16:58;2.40;;;0.82;;
58091;SDS011;43896;48.178;11.578;2023-02-19T17:19:23;3.40;;;1.10;;
58091;SDS011;43896;48.178;11.578;2023-02-19T17:21:49;2.97;;;0.98;;